createdAt,value
2018-06-24T00:00:06.964Z,84.00
2018-06-24T00:02:36.597Z,84.60
2018-06-24T00:05:05.815Z,84.90
2018-06-24T00:07:35.582Z,84.55
2018-06-24T00:10:04.872Z,84.04
2018-06-24T00:12:34.120Z,84.23
2018-06-24T00:15:03.471Z,84.22
2018-06-24T00:17:33.059Z,85.25
2018-06-24T00:20:03.043Z,84.73
2018-06-24T00:22:32.223Z,85.76
2018-06-24T00:25:01.620Z,85.49
2018-06-24T00:27:30.787Z,85.68
2018-06-24T00:30:00.182Z,85.35
2018-06-24T00:32:29.338Z,85.24
2018-06-24T00:34:58.529Z,85.95
2018-06-24T00:37:27.674Z,85.51
2018-06-24T00:39:56.886Z,86.16
2018-06-24T00:42:27.219Z,86.14
2018-06-24T00:44:56.430Z,86.27
2018-06-24T00:47:25.631Z,86.09
2018-06-24T00:49:54.822Z,85.83
2018-06-24T00:52:23.982Z,86.28
2018-06-24T00:54:53.634Z,86.55
2018-06-24T00:57:22.813Z,86.65
2018-06-24T01:00:03.391Z,87.28
2018-06-24T01:02:32.551Z,87.23
2018-06-24T01:05:01.912Z,87.01
2018-06-24T01:07:31.075Z,87.11
2018-06-24T01:10:00.266Z,86.70
2018-06-24T01:12:29.504Z,87.01
2018-06-24T01:14:59.143Z,86.61
2018-06-24T01:17:28.354Z,86.89
2018-06-24T01:19:58.819Z,86.19
2018-06-24T01:22:28.494Z,85.93
2018-06-24T01:24:58.406Z,86.01
2018-06-24T01:27:27.805Z,86.52
2018-06-24T01:29:56.995Z,86.63
2018-06-24T01:32:26.150Z,86.61
2018-06-24T01:34:55.468Z,86.66
2018-06-24T01:37:24.640Z,86.69
2018-06-24T01:39:53.838Z,86.78
2018-06-24T01:42:23.010Z,84.63
2018-06-24T01:44:52.423Z,83.54
2018-06-24T01:47:22.095Z,84.11
2018-06-24T01:49:51.306Z,85.25
2018-06-24T01:52:20.498Z,85.05
2018-06-24T01:54:49.691Z,83.83
2018-06-24T01:57:18.884Z,83.74
2018-06-24T01:59:48.051Z,84.37
2018-06-24T02:02:17.274Z,84.08
2018-06-24T02:04:46.678Z,85.04
2018-06-24T02:07:15.970Z,85.20
2018-06-24T02:09:45.955Z,85.76
2018-06-24T02:12:15.658Z,86.25
2018-06-24T02:14:44.815Z,86.73
2018-06-24T02:17:14.020Z,86.37
2018-06-24T02:19:43.185Z,86.55
2018-06-24T02:22:12.385Z,86.74
2018-06-24T02:24:41.572Z,86.10
2018-06-24T02:27:10.815Z,85.50
2018-06-24T02:29:40.369Z,85.83
2018-06-24T02:32:09.990Z,85.40
2018-06-24T02:34:39.175Z,85.88
2018-06-24T02:37:08.784Z,85.50
2018-06-24T02:39:38.191Z,86.46
2018-06-24T02:42:07.527Z,86.39
2018-06-24T02:44:36.699Z,86.35
2018-06-24T02:47:06.071Z,86.76
2018-06-24T02:49:35.281Z,86.41
2018-06-24T02:52:04.584Z,86.65
2018-06-24T02:54:33.758Z,86.02
2018-06-24T02:57:03.027Z,86.05
2018-06-24T02:59:32.212Z,86.31
2018-06-24T03:02:01.414Z,86.25
2018-06-24T03:04:30.610Z,85.76
2018-06-24T03:06:59.923Z,85.60
2018-06-24T03:09:29.090Z,84.42
2018-06-24T03:11:58.542Z,84.94
2018-06-24T03:14:27.707Z,85.53
2018-06-24T03:16:57.431Z,85.44
2018-06-24T03:19:26.614Z,85.96
2018-06-24T03:21:56.030Z,85.53
2018-06-24T03:24:25.305Z,84.76
2018-06-24T03:26:54.510Z,84.12
2018-06-24T03:29:23.817Z,83.60
2018-06-24T03:31:53.831Z,84.87
2018-06-24T03:34:23.759Z,85.48
2018-06-24T03:36:52.955Z,84.67
2018-06-24T03:39:22.154Z,84.99
2018-06-24T03:41:51.379Z,84.81
2018-06-24T03:44:20.571Z,84.88
2018-06-24T03:46:50.044Z,85.69
2018-06-24T03:49:19.266Z,85.46
2018-06-24T03:51:48.453Z,85.29
2018-06-24T03:54:18.166Z,84.75
2018-06-24T03:56:47.358Z,84.73
2018-06-24T03:59:16.559Z,85.01
2018-06-24T04:01:46.308Z,84.61
2018-06-24T04:04:15.619Z,84.17
2018-06-24T04:06:44.836Z,84.57
2018-06-24T04:09:14.059Z,84.40
2018-06-24T04:11:43.344Z,84.02
2018-06-24T04:14:12.655Z,83.74
2018-06-24T04:16:42.123Z,83.62
2018-06-24T04:19:12.040Z,83.58
2018-06-24T04:21:41.766Z,84.14
2018-06-24T04:24:10.983Z,84.18
2018-06-24T04:26:40.158Z,84.22
2018-06-24T04:29:09.405Z,83.85
2018-06-24T04:31:38.612Z,83.79
2018-06-24T04:34:07.846Z,85.09
2018-06-24T04:36:37.027Z,85.35
2018-06-24T04:39:08.784Z,84.29
2018-06-24T04:41:39.011Z,84.18
2018-06-24T04:44:08.255Z,83.41
2018-06-24T04:46:37.457Z,83.16
2018-06-24T04:49:06.719Z,83.45
2018-06-24T04:51:35.924Z,82.95
2018-06-24T04:54:05.310Z,82.75
2018-06-24T04:56:34.575Z,82.79
2018-06-24T04:59:03.775Z,83.46
2018-06-24T05:01:32.978Z,81.37
2018-06-24T05:04:02.203Z,79.80
2018-06-24T05:06:31.394Z,78.89
2018-06-24T05:09:01.165Z,79.51
2018-06-24T05:11:30.684Z,78.40
2018-06-24T05:14:00.495Z,76.83
2018-06-24T05:16:29.727Z,75.78
2018-06-24T05:18:59.290Z,74.32
2018-06-24T05:21:28.530Z,73.20
2018-06-24T05:23:57.738Z,72.00
2018-06-24T05:26:27.069Z,71.17
2018-06-24T05:28:56.251Z,71.40
2018-06-24T05:31:25.723Z,71.17
2018-06-24T05:33:54.866Z,70.93
2018-06-24T05:36:24.067Z,70.60
2018-06-24T05:38:53.247Z,69.95
2018-06-24T05:41:22.456Z,69.67
2018-06-24T05:43:51.876Z,69.24
2018-06-24T05:46:21.119Z,70.12
2018-06-24T05:48:50.397Z,70.06
2018-06-24T05:51:19.743Z,70.02
2018-06-24T05:53:49.202Z,68.96
2018-06-24T05:56:19.048Z,68.17
2018-06-24T05:58:48.214Z,64.37
2018-06-24T06:01:17.478Z,63.56
2018-06-24T06:03:46.741Z,63.05
2018-06-24T06:06:16.007Z,61.97
2018-06-24T06:08:45.194Z,58.17
2018-06-24T06:11:14.407Z,56.53
2018-06-24T06:13:43.724Z,56.66
2018-06-24T06:16:12.915Z,59.45
2018-06-24T06:18:42.211Z,61.63
2018-06-24T06:21:11.427Z,62.08
2018-06-24T06:23:40.935Z,62.90
2018-06-24T06:26:10.389Z,60.82
2018-06-24T06:28:39.738Z,58.80
2018-06-24T06:31:09.430Z,56.51
2018-06-24T06:33:38.644Z,54.62
2018-06-24T06:36:08.238Z,54.43
2018-06-24T06:38:37.428Z,56.56
2018-06-24T06:41:06.739Z,58.75
2018-06-24T06:43:36.086Z,58.85
2018-06-24T06:46:09.382Z,60.18
2018-06-24T06:48:38.711Z,62.21
2018-06-24T06:51:08.967Z,62.40
2018-06-24T06:53:38.159Z,59.65
2018-06-24T06:56:07.859Z,61.77
2018-06-24T06:58:37.670Z,59.64
2018-06-24T07:01:06.883Z,61.62
2018-06-24T07:03:36.412Z,58.50
2018-06-24T07:06:05.630Z,57.49
2018-06-24T07:08:34.920Z,58.23
2018-06-24T07:11:04.279Z,58.94
2018-06-24T07:13:33.731Z,59.77
2018-06-24T07:16:03.384Z,61.06
2018-06-24T07:18:32.814Z,61.58
2018-06-24T07:21:02.012Z,60.53
2018-06-24T07:23:31.218Z,61.44
2018-06-24T07:26:00.746Z,58.78
2018-06-24T07:28:30.008Z,57.32
2018-06-24T07:30:59.471Z,55.26
2018-06-24T07:33:28.699Z,53.94
2018-06-24T07:35:57.844Z,54.91
2018-06-24T07:38:27.101Z,55.73
2018-06-24T07:40:56.272Z,57.74
2018-06-24T07:43:25.469Z,57.30
2018-06-24T07:45:54.643Z,59.61
2018-06-24T07:48:23.840Z,59.09
2018-06-24T07:50:53.088Z,59.73
2018-06-24T07:53:22.312Z,61.29
2018-06-24T07:55:51.530Z,56.86
2018-06-24T07:58:20.735Z,52.88
2018-06-24T08:00:50.675Z,46.97
2018-06-24T08:03:19.858Z,43.17
2018-06-24T08:05:49.321Z,41.30
2018-06-24T08:08:18.903Z,41.80
2018-06-24T08:10:48.130Z,41.94
2018-06-24T08:13:17.327Z,40.45
2018-06-24T08:15:46.939Z,40.86
2018-06-24T08:18:16.730Z,46.28
2018-06-24T08:20:46.398Z,48.13
2018-06-24T08:23:15.839Z,46.84
2018-06-24T08:25:45.103Z,44.90
2018-06-24T08:28:14.295Z,41.07
2018-06-24T08:30:44.059Z,36.35
2018-06-24T08:33:13.904Z,34.99
2018-06-24T08:35:43.119Z,32.64
2018-06-24T08:38:12.384Z,32.76
2018-06-24T08:40:41.574Z,30.79
2018-06-24T08:43:10.811Z,32.39
2018-06-24T08:45:40.091Z,41.93
2018-06-24T08:48:09.262Z,44.45
2018-06-24T08:50:39.412Z,47.35
2018-06-24T08:53:08.630Z,47.69
2018-06-24T08:55:37.888Z,47.94
2018-06-24T08:58:07.104Z,48.83
2018-06-24T09:00:36.481Z,50.64
2018-06-24T09:03:05.723Z,52.22
2018-06-24T09:05:34.963Z,52.36
2018-06-24T09:08:04.464Z,55.18
2018-06-24T09:10:33.676Z,53.37
2018-06-24T09:13:02.866Z,52.76
2018-06-24T09:15:32.144Z,51.42
2018-06-24T09:18:01.692Z,47.56
2018-06-24T09:20:31.022Z,45.32
2018-06-24T09:23:00.527Z,41.09
2018-06-24T09:25:30.451Z,38.89
2018-06-24T09:28:00.044Z,42.09
2018-06-24T09:30:29.550Z,42.24
2018-06-24T09:32:58.744Z,43.84
2018-06-24T09:35:27.914Z,45.65
2018-06-24T09:37:57.136Z,44.42
2018-06-24T09:40:26.571Z,46.59
2018-06-24T09:42:56.527Z,44.95
2018-06-24T09:45:26.319Z,45.66
2018-06-24T09:47:56.183Z,43.26
2018-06-24T09:50:25.366Z,41.75
2018-06-24T09:52:54.674Z,39.43
2018-06-24T09:55:23.834Z,43.85
2018-06-24T09:57:53.375Z,44.56
2018-06-24T10:00:23.782Z,43.29
2018-06-24T10:02:54.113Z,40.46
2018-06-24T10:05:23.711Z,42.31
2018-06-24T10:07:53.269Z,44.55
2018-06-24T10:10:22.679Z,46.01
2018-06-24T10:12:52.171Z,47.12
2018-06-24T10:15:21.351Z,48.43
2018-06-24T10:17:50.724Z,48.23
2018-06-24T10:20:19.883Z,46.77
2018-06-24T10:22:49.227Z,45.96
2018-06-24T10:25:18.419Z,46.35
2018-06-24T10:27:47.630Z,43.61
2018-06-24T10:30:17.671Z,41.67
2018-06-24T10:32:47.223Z,40.70
2018-06-24T10:35:16.502Z,40.28
2018-06-24T10:37:45.707Z,37.17
2018-06-24T10:40:15.203Z,36.07
2018-06-24T10:42:44.784Z,33.10
2018-06-24T10:45:14.010Z,31.91
2018-06-24T10:47:43.207Z,33.83
2018-06-24T10:50:12.659Z,35.84
2018-06-24T10:52:41.935Z,36.94
2018-06-24T10:55:11.411Z,37.26
2018-06-24T10:57:40.639Z,38.92
2018-06-24T11:00:09.870Z,38.55
2018-06-24T11:02:39.055Z,39.79
2018-06-24T11:05:08.295Z,42.12
2018-06-24T11:07:37.758Z,41.71
2018-06-24T11:10:07.005Z,42.37
2018-06-24T11:12:36.287Z,42.70
2018-06-24T11:15:05.563Z,41.82
2018-06-24T11:17:34.750Z,42.07
2018-06-24T11:20:04.015Z,37.55
2018-06-24T11:22:33.213Z,36.82
2018-06-24T11:25:02.911Z,36.18
2018-06-24T11:27:32.403Z,35.01
2018-06-24T11:30:02.056Z,32.12
2018-06-24T11:32:31.258Z,32.26
2018-06-24T11:35:00.466Z,29.55
2018-06-24T11:37:29.838Z,30.30
2018-06-24T11:39:59.071Z,32.54
2018-06-24T11:42:28.291Z,31.45
2018-06-24T11:44:57.499Z,35.03
2018-06-24T11:47:27.244Z,37.24
2018-06-24T11:49:56.439Z,35.54
2018-06-24T11:52:25.619Z,31.73
2018-06-24T11:54:54.790Z,30.48
2018-06-24T11:57:24.303Z,30.35
2018-06-24T11:59:53.819Z,33.70
2018-06-24T12:02:24.199Z,31.47
2018-06-24T12:04:53.962Z,30.29
2018-06-24T12:07:23.178Z,31.84
2018-06-24T12:09:52.376Z,30.71
2018-06-24T12:12:21.811Z,30.01
2018-06-24T12:14:50.994Z,29.64
2018-06-24T12:17:20.388Z,29.81
2018-06-24T12:19:49.783Z,31.10
2018-06-24T12:22:18.986Z,35.43
2018-06-24T12:24:48.806Z,37.49
2018-06-24T12:27:18.009Z,38.68
2018-06-24T12:29:47.187Z,40.31
2018-06-24T12:32:16.393Z,40.52
2018-06-24T12:34:45.564Z,41.85
2018-06-24T12:37:14.827Z,39.13
2018-06-24T12:39:44.007Z,39.27
2018-06-24T12:42:13.551Z,36.27
2018-06-24T12:44:42.759Z,36.83
2018-06-24T12:47:12.351Z,33.53
2018-06-24T12:49:41.811Z,31.56
2018-06-24T12:52:11.035Z,31.54
2018-06-24T12:54:40.247Z,33.27
2018-06-24T12:57:09.925Z,35.64
2018-06-24T12:59:39.359Z,33.49
2018-06-24T13:06:59.515Z,32.32
2018-06-24T13:09:29.082Z,29.97
2018-06-24T13:11:58.427Z,31.66
2018-06-24T13:14:27.976Z,30.18
2018-06-24T13:16:57.165Z,30.22
2018-06-24T13:19:26.607Z,33.90
2018-06-24T13:21:56.020Z,33.87
2018-06-24T13:24:25.271Z,34.53
2018-06-24T13:26:54.663Z,36.93
2018-06-24T13:29:23.871Z,40.45
2018-06-24T13:31:54.047Z,41.07
2018-06-24T13:34:23.298Z,41.12
2018-06-24T13:36:53.086Z,40.85
2018-06-24T13:39:22.286Z,39.28
2018-06-24T13:41:52.206Z,35.39
2018-06-24T13:44:21.435Z,34.60
2018-06-24T13:46:50.748Z,35.52
2018-06-24T13:49:19.962Z,40.01
2018-06-24T13:51:49.246Z,38.44
2018-06-24T13:54:18.785Z,38.03
2018-06-24T13:56:48.071Z,38.03
2018-06-24T13:59:17.876Z,37.97
2018-06-24T14:01:47.048Z,35.26
2018-06-24T14:04:16.330Z,36.73
2018-06-24T14:06:45.543Z,36.93
2018-06-24T14:09:15.119Z,37.84
2018-06-24T14:11:44.322Z,37.33
2018-06-24T14:14:13.809Z,36.80
2018-06-24T14:16:43.015Z,36.82
2018-06-24T14:19:12.227Z,35.55
2018-06-24T14:21:41.439Z,36.41
2018-06-24T14:24:10.651Z,37.36
2018-06-24T14:26:40.187Z,38.55
2018-06-24T14:29:09.401Z,37.77
2018-06-24T14:31:38.607Z,38.20
2018-06-24T14:34:07.828Z,39.38
2018-06-24T14:36:37.013Z,38.68
2018-06-24T14:39:08.363Z,39.39
2018-06-24T14:41:37.863Z,37.17
2018-06-24T14:44:07.386Z,38.82
2018-06-24T14:46:36.639Z,38.88
2018-06-24T14:49:05.848Z,39.72
2018-06-24T14:51:35.059Z,38.90
2018-06-24T14:54:04.263Z,40.00
2018-06-24T14:56:33.878Z,39.00
2018-06-24T14:59:03.075Z,40.58
2018-06-24T15:01:32.369Z,40.76
2018-06-24T15:04:01.578Z,40.42
2018-06-24T15:06:30.774Z,41.99
2018-06-24T15:09:00.317Z,42.90
2018-06-24T15:11:29.515Z,43.73
2018-06-24T15:13:58.687Z,44.69
2018-06-24T15:16:28.742Z,43.89
2018-06-24T15:18:58.419Z,43.04
2018-06-24T15:21:27.632Z,42.34
2018-06-24T15:23:56.818Z,42.75
2018-06-24T15:26:26.003Z,42.49
2018-06-24T15:28:55.162Z,41.96
2018-06-24T15:31:25.347Z,42.78
2018-06-24T15:33:54.591Z,42.00
2018-06-24T15:36:23.795Z,42.62
2018-06-24T15:38:52.966Z,43.43
2018-06-24T15:41:22.467Z,44.64
2018-06-24T15:43:51.686Z,44.81
2018-06-24T15:46:20.911Z,45.20
2018-06-24T15:48:50.071Z,45.70
2018-06-24T15:51:19.990Z,45.46
2018-06-24T15:53:49.423Z,47.43
2018-06-24T15:56:18.651Z,46.85
2018-06-24T15:58:48.250Z,47.72
2018-06-24T16:01:18.251Z,46.36
2018-06-24T16:03:47.433Z,45.66
2018-06-24T16:06:16.607Z,43.95
2018-06-24T16:08:45.975Z,44.21
2018-06-24T16:11:15.170Z,43.67
2018-06-24T16:13:44.838Z,45.11
2018-06-24T16:16:14.362Z,43.84
2018-06-24T16:18:43.802Z,44.15
2018-06-24T16:21:13.147Z,43.19
2018-06-24T16:23:43.015Z,43.49
2018-06-24T16:26:12.751Z,43.83
2018-06-24T16:28:42.240Z,44.14
2018-06-24T16:31:11.798Z,43.56
2018-06-24T16:33:41.003Z,44.14
2018-06-24T16:36:10.175Z,44.41
2018-06-24T16:38:39.399Z,43.74
2018-06-24T16:41:08.821Z,44.99
2018-06-24T16:43:38.093Z,43.84
2018-06-24T16:46:07.274Z,45.45
2018-06-24T16:48:36.883Z,44.89
2018-06-24T16:51:06.069Z,44.41
2018-06-24T16:53:35.274Z,44.86
2018-06-24T16:56:04.973Z,45.94
2018-06-24T16:58:34.192Z,47.32
2018-06-24T17:01:03.402Z,45.38
2018-06-24T17:03:33.017Z,46.87
2018-06-24T17:06:02.207Z,46.24
2018-06-24T17:08:31.503Z,46.46
2018-06-24T17:11:00.678Z,46.84
2018-06-24T17:13:30.062Z,46.80
2018-06-24T17:15:59.255Z,46.34
2018-06-24T17:18:28.539Z,47.64
2018-06-24T17:20:58.320Z,48.41
2018-06-24T17:23:27.486Z,48.05
2018-06-24T17:25:56.992Z,48.73
2018-06-24T17:28:26.495Z,49.59
2018-06-24T17:30:56.703Z,48.75
2018-06-24T17:33:25.899Z,49.80
2018-06-24T17:35:55.559Z,49.44
2018-06-24T17:38:24.731Z,49.82
2018-06-24T17:40:53.943Z,49.29
2018-06-24T17:43:23.242Z,49.89
2018-06-24T17:45:52.451Z,50.18
2018-06-24T17:48:21.627Z,50.68
2018-06-24T17:50:50.826Z,50.71
2018-06-24T17:53:20.067Z,50.46
2018-06-24T17:55:49.636Z,50.30
2018-06-24T17:58:19.134Z,51.13
2018-06-24T18:00:48.439Z,51.70
2018-06-24T18:03:17.619Z,52.64
2018-06-24T18:05:47.299Z,53.10
2018-06-24T18:08:17.419Z,52.71
2018-06-24T18:10:47.587Z,53.58
2018-06-24T18:13:16.790Z,53.22
2018-06-24T18:15:45.999Z,53.34
2018-06-24T18:18:15.680Z,53.52
2018-06-24T18:20:44.879Z,53.62
2018-06-24T18:23:14.606Z,54.40
2018-06-24T18:25:43.784Z,54.61
2018-06-24T18:28:13.113Z,53.17
2018-06-24T18:30:42.215Z,53.94
2018-06-24T18:33:11.498Z,54.24
2018-06-24T18:35:40.598Z,54.58
2018-06-24T18:38:09.803Z,54.91
2018-06-24T18:40:39.098Z,55.65
2018-06-24T18:43:08.455Z,55.73
2018-06-24T18:45:38.395Z,56.18
2018-06-24T18:48:07.619Z,56.57
2018-06-24T18:50:36.778Z,56.63
2018-06-24T18:53:06.147Z,56.82
2018-06-24T18:55:35.315Z,57.24
2018-06-24T18:58:04.559Z,57.47
2018-06-24T19:00:33.751Z,57.90
2018-06-24T19:03:03.267Z,58.28
2018-06-24T19:05:32.307Z,58.52
2018-06-24T19:08:02.038Z,57.67
2018-06-24T19:10:31.219Z,57.78
2018-06-24T19:13:00.422Z,59.01
2018-06-24T19:15:30.512Z,59.29
2018-06-24T19:17:59.723Z,59.33
2018-06-24T19:20:28.902Z,59.73
2018-06-24T19:22:58.654Z,59.93
2018-06-24T19:25:27.854Z,60.17
2018-06-24T19:27:57.187Z,60.99
2018-06-24T19:30:26.368Z,60.64
2018-06-24T19:32:55.668Z,60.85
2018-06-24T19:35:25.155Z,60.32
2018-06-24T19:37:54.359Z,60.98
2018-06-24T19:40:23.708Z,61.21
2018-06-24T19:42:53.175Z,61.34
2018-06-24T19:45:22.342Z,61.27
2018-06-24T19:47:51.554Z,61.79
2018-06-24T19:50:20.727Z,62.03
2018-06-24T19:52:49.919Z,62.10
2018-06-24T19:55:19.731Z,62.17
2018-06-24T19:57:48.963Z,62.29
2018-06-24T20:00:18.148Z,62.34
2018-06-24T20:02:47.675Z,62.35
2018-06-24T20:05:17.223Z,62.97
2018-06-24T20:07:46.430Z,62.65
2018-06-24T20:10:15.631Z,63.01
2018-06-24T20:12:45.117Z,62.95
2018-06-24T20:15:14.594Z,63.59
2018-06-24T20:17:43.787Z,63.44
2018-06-24T20:20:13.660Z,63.50
2018-06-24T20:22:42.867Z,63.71
2018-06-24T20:25:12.059Z,64.43
2018-06-24T20:27:41.275Z,64.25
2018-06-24T20:30:10.508Z,64.07
2018-06-24T20:32:39.688Z,64.21
2018-06-24T20:35:09.003Z,64.61
2018-06-24T20:37:38.171Z,64.79
2018-06-24T20:40:07.422Z,64.78
2018-06-24T20:42:36.703Z,64.31
2018-06-24T20:45:06.500Z,64.20
2018-06-24T20:47:35.678Z,64.66
2018-06-24T20:50:05.537Z,65.51
2018-06-24T20:52:34.762Z,66.01
2018-06-24T20:55:04.005Z,66.01
2018-06-24T20:57:33.226Z,65.96
2018-06-24T21:00:02.698Z,66.75
2018-06-24T21:02:31.925Z,66.59
2018-06-24T21:05:01.291Z,67.07
2018-06-24T21:07:30.720Z,67.39
2018-06-24T21:09:59.935Z,66.87
2018-06-24T21:12:29.118Z,66.59
2018-06-24T21:14:58.342Z,67.36
2018-06-24T21:17:27.511Z,67.28
2018-06-24T21:19:56.719Z,67.33
2018-06-24T21:22:26.035Z,67.99
2018-06-24T21:24:55.231Z,67.63
2018-06-24T21:27:24.618Z,67.80
2018-06-24T21:29:53.827Z,68.03
2018-06-24T21:32:23.023Z,67.25
2018-06-24T21:34:52.646Z,68.03
2018-06-24T21:37:21.822Z,68.88
2018-06-24T21:39:51.031Z,68.94
2018-06-24T21:42:20.302Z,69.76
2018-06-24T21:44:49.870Z,70.17
2018-06-24T21:47:19.210Z,70.45
2018-06-24T21:49:48.410Z,70.18
2018-06-24T21:52:17.627Z,70.54
2018-06-24T21:54:46.795Z,70.69
2018-06-24T21:57:16.266Z,70.46
2018-06-24T21:59:45.452Z,70.76
2018-06-24T22:02:14.660Z,70.69
2018-06-24T22:04:44.167Z,70.74
2018-06-24T22:07:13.395Z,70.76
2018-06-24T22:09:42.596Z,71.21
2018-06-24T22:12:11.807Z,71.62
2018-06-24T22:14:41.247Z,71.58
2018-06-24T22:17:10.491Z,71.72
2018-06-24T22:19:39.664Z,71.60
2018-06-24T22:22:08.883Z,71.07
2018-06-24T22:24:38.220Z,71.44
2018-06-24T22:27:07.815Z,71.25
2018-06-24T22:29:37.310Z,71.70
2018-06-24T22:32:06.863Z,72.16
2018-06-24T22:34:36.033Z,72.27
2018-06-24T22:37:05.306Z,72.93
2018-06-24T22:39:34.586Z,72.81
2018-06-24T22:42:03.806Z,72.51
2018-06-24T22:44:33.322Z,72.73
2018-06-24T22:47:02.847Z,72.23
2018-06-24T22:49:32.258Z,73.04
2018-06-24T22:52:01.472Z,72.73
2018-06-24T22:54:30.950Z,72.92
2018-06-24T22:57:00.267Z,72.67
2018-06-24T22:59:40.602Z,73.24
2018-06-24T23:02:09.828Z,73.37
2018-06-24T23:04:38.866Z,73.36
2018-06-24T23:07:08.071Z,73.47
2018-06-24T23:09:37.270Z,73.00
2018-06-24T23:12:06.943Z,73.27
2018-06-24T23:14:36.143Z,73.53
2018-06-24T23:17:05.355Z,73.20
2018-06-24T23:19:34.570Z,73.72
2018-06-24T23:22:03.791Z,74.31
2018-06-24T23:24:32.995Z,74.11
2018-06-24T23:27:02.174Z,74.55
2018-06-24T23:29:31.982Z,74.56
2018-06-24T23:32:01.180Z,74.30
2018-06-24T23:34:30.898Z,74.66
2018-06-24T23:37:00.070Z,74.55
2018-06-24T23:39:29.262Z,75.05
2018-06-24T23:41:58.447Z,74.57
2018-06-24T23:44:28.152Z,74.49
2018-06-24T23:46:57.340Z,74.81
2018-06-24T23:49:26.579Z,75.15
2018-06-24T23:51:55.774Z,74.90
2018-06-24T23:54:25.370Z,75.44
2018-06-24T23:56:54.685Z,75.32
2018-06-24T23:59:24.174Z,75.65
